sensor_id;sensor_type;location;lat;lon;timestamp;temperature;humidity
73112;HTU21D;61301;51.956;5.876;2024-01-11T00:00:36;3.58;38.62
73112;HTU21D;61301;51.956;5.876;2024-01-11T00:03:02;3.58;38.59
73112;HTU21D;61301;51.956;5.876;2024-01-11T00:05:28;3.47;38.63
73112;HTU21D;61301;51.956;5.876;2024-01-11T00:07:54;3.39;38.75
73112;HTU21D;61301;51.956;5.876;2024-01-11T00:10:20;3.35;38.84
73112;HTU21D;61301;51.956;5.876;2024-01-11T00:12:47;3.33;38.92
73112;HTU21D;61301;51.956;5.876;2024-01-11T00:15:13;3.32;39.13
73112;HTU21D;61301;51.956;5.876;2024-01-11T00:17:39;3.32;39.01
73112;HTU21D;61301;51.956;5.876;2024-01-11T00:20:06;3.26;38.99
73112;HTU21D;61301;51.956;5.876;2024-01-11T00:22:32;3.28;39.10
73112;HTU21D;61301;51.956;5.876;2024-01-11T00:24:58;3.32;39.14
73112;HTU21D;61301;51.956;5.876;2024-01-11T00:27:24;3.38;39.26
73112;HTU21D;61301;51.956;5.876;2024-01-11T00:29:50;3.40;39.08
73112;HTU21D;61301;51.956;5.876;2024-01-11T00:32:16;3.46;39.07
73112;HTU21D;61301;51.956;5.876;2024-01-11T00:34:42;3.47;38.92
73112;HTU21D;61301;51.956;5.876;2024-01-11T00:37:09;3.44;39.04
73112;HTU21D;61301;51.956;5.876;2024-01-11T00:39:35;3.55;39.22
73112;HTU21D;61301;51.956;5.876;2024-01-11T00:42:01;3.54;39.19
73112;HTU21D;61301;51.956;5.876;2024-01-11T00:44:27;3.48;39.12
73112;HTU21D;61301;51.956;5.876;2024-01-11T00:46:53;3.39;38.98
73112;HTU21D;61301;51.956;5.876;2024-01-11T00:49:20;3.31;39.30
73112;HTU21D;61301;51.956;5.876;2024-01-11T00:51:47;3.31;39.50
73112;HTU21D;61301;51.956;5.876;2024-01-11T00:54:13;3.24;39.40
73112;HTU21D;61301;51.956;5.876;2024-01-11T00:56:39;3.23;39.43
73112;HTU21D;61301;51.956;5.876;2024-01-11T00:59:05;3.25;39.49
73112;HTU21D;61301;51.956;5.876;2024-01-11T01:01:31;3.35;39.67
73112;HTU21D;61301;51.956;5.876;2024-01-11T01:03:58;3.35;39.49
73112;HTU21D;61301;51.956;5.876;2024-01-11T01:06:24;3.35;39.48
73112;HTU21D;61301;51.956;5.876;2024-01-11T01:08:50;3.35;39.47
73112;HTU21D;61301;51.956;5.876;2024-01-11T01:11:16;3.35;39.37
73112;HTU21D;61301;51.956;5.876;2024-01-11T01:13:42;3.39;39.51
73112;HTU21D;61301;51.956;5.876;2024-01-11T01:16:08;3.32;39.42
73112;HTU21D;61301;51.956;5.876;2024-01-11T01:18:34;3.31;39.48
73112;HTU21D;61301;51.956;5.876;2024-01-11T01:21:00;3.32;39.48
73112;HTU21D;61301;51.956;5.876;2024-01-11T01:23:26;3.28;39.38
73112;HTU21D;61301;51.956;5.876;2024-01-11T01:25:52;3.28;39.49
73112;HTU21D;61301;51.956;5.876;2024-01-11T01:28:18;3.28;39.58
73112;HTU21D;61301;51.956;5.876;2024-01-11T01:30:44;3.28;39.57
73112;HTU21D;61301;51.956;5.876;2024-01-11T01:33:10;3.25;39.52
73112;HTU21D;61301;51.956;5.876;2024-01-11T01:35:36;3.21;39.56
73112;HTU21D;61301;51.956;5.876;2024-01-11T01:38:02;3.18;39.57
73112;HTU21D;61301;51.956;5.876;2024-01-11T01:40:30;3.17;39.65
73112;HTU21D;61301;51.956;5.876;2024-01-11T01:43:00;3.08;39.72
73112;HTU21D;61301;51.956;5.876;2024-01-11T01:45:26;3.04;39.77
73112;HTU21D;61301;51.956;5.876;2024-01-11T01:47:53;3.09;39.81
73112;HTU21D;61301;51.956;5.876;2024-01-11T01:50:19;3.06;39.72
73112;HTU21D;61301;51.956;5.876;2024-01-11T01:52:47;3.10;39.91
73112;HTU21D;61301;51.956;5.876;2024-01-11T01:55:14;3.05;39.78
73112;HTU21D;61301;51.956;5.876;2024-01-11T01:57:42;3.08;39.88
73112;HTU21D;61301;51.956;5.876;2024-01-11T02:00:10;3.04;39.96
73112;HTU21D;61301;51.956;5.876;2024-01-11T02:02:42;2.98;39.99
73112;HTU21D;61301;51.956;5.876;2024-01-11T02:05:09;2.88;40.12
73112;HTU21D;61301;51.956;5.876;2024-01-11T02:07:36;2.85;40.18
73112;HTU21D;61301;51.956;5.876;2024-01-11T02:10:02;2.88;40.17
73112;HTU21D;61301;51.956;5.876;2024-01-11T02:12:29;2.93;40.25
73112;HTU21D;61301;51.956;5.876;2024-01-11T02:14:55;2.91;40.19
73112;HTU21D;61301;51.956;5.876;2024-01-11T02:17:21;2.89;40.28
73112;HTU21D;61301;51.956;5.876;2024-01-11T02:19:47;2.95;40.30
73112;HTU21D;61301;51.956;5.876;2024-01-11T02:22:24;3.13;40.65
73112;HTU21D;61301;51.956;5.876;2024-01-11T02:24:50;3.17;40.59
73112;HTU21D;61301;51.956;5.876;2024-01-11T02:27:16;3.26;40.84
73112;HTU21D;61301;51.956;5.876;2024-01-11T02:29:42;3.29;40.72
73112;HTU21D;61301;51.956;5.876;2024-01-11T02:32:08;3.24;40.84
73112;HTU21D;61301;51.956;5.876;2024-01-11T02:34:35;3.18;41.07
73112;HTU21D;61301;51.956;5.876;2024-01-11T02:37:01;3.11;41.10
73112;HTU21D;61301;51.956;5.876;2024-01-11T02:39:27;3.16;41.36
73112;HTU21D;61301;51.956;5.876;2024-01-11T02:41:56;3.19;41.17
73112;HTU21D;61301;51.956;5.876;2024-01-11T02:44:22;3.21;41.30
73112;HTU21D;61301;51.956;5.876;2024-01-11T02:46:48;3.32;41.29
73112;HTU21D;61301;51.956;5.876;2024-01-11T02:49:14;3.39;41.20
73112;HTU21D;61301;51.956;5.876;2024-01-11T02:51:41;3.35;40.98
73112;HTU21D;61301;51.956;5.876;2024-01-11T02:54:07;3.32;40.82
73112;HTU21D;61301;51.956;5.876;2024-01-11T02:56:33;3.26;40.81
73112;HTU21D;61301;51.956;5.876;2024-01-11T02:58:59;3.27;40.89
73112;HTU21D;61301;51.956;5.876;2024-01-11T03:01:25;3.30;40.94
73112;HTU21D;61301;51.956;5.876;2024-01-11T03:03:51;3.25;40.84
73112;HTU21D;61301;51.956;5.876;2024-01-11T03:06:17;3.26;41.26
73112;HTU21D;61301;51.956;5.876;2024-01-11T03:08:48;3.50;42.05
73112;HTU21D;61301;51.956;5.876;2024-01-11T03:11:14;3.75;42.37
73112;HTU21D;61301;51.956;5.876;2024-01-11T03:13:42;3.91;42.32
73112;HTU21D;61301;51.956;5.876;2024-01-11T03:16:08;3.95;41.94
73112;HTU21D;61301;51.956;5.876;2024-01-11T03:18:34;4.06;42.20
73112;HTU21D;61301;51.956;5.876;2024-01-11T03:21:01;4.14;42.02
73112;HTU21D;61301;51.956;5.876;2024-01-11T03:23:27;4.08;41.71
73112;HTU21D;61301;51.956;5.876;2024-01-11T03:25:53;3.98;41.49
73112;HTU21D;61301;51.956;5.876;2024-01-11T03:28:19;3.89;41.55
73112;HTU21D;61301;51.956;5.876;2024-01-11T03:30:45;3.88;41.61
73112;HTU21D;61301;51.956;5.876;2024-01-11T03:33:11;3.77;41.21
73112;HTU21D;61301;51.956;5.876;2024-01-11T03:35:37;3.57;41.04
73112;HTU21D;61301;51.956;5.876;2024-01-11T03:38:06;3.35;41.12
73112;HTU21D;61301;51.956;5.876;2024-01-11T03:40:32;3.27;41.32
73112;HTU21D;61301;51.956;5.876;2024-01-11T03:42:58;3.26;41.36
73112;HTU21D;61301;51.956;5.876;2024-01-11T03:45:24;3.24;41.36
73112;HTU21D;61301;51.956;5.876;2024-01-11T03:47:50;3.12;41.23
73112;HTU21D;61301;51.956;5.876;2024-01-11T03:50:16;3.00;41.16
73112;HTU21D;61301;51.956;5.876;2024-01-11T03:52:42;2.89;41.20
73112;HTU21D;61301;51.956;5.876;2024-01-11T03:55:08;2.90;41.37
73112;HTU21D;61301;51.956;5.876;2024-01-11T03:57:34;2.91;41.32
73112;HTU21D;61301;51.956;5.876;2024-01-11T04:00:01;2.97;41.40
73112;HTU21D;61301;51.956;5.876;2024-01-11T04:02:27;3.05;41.51
73112;HTU21D;61301;51.956;5.876;2024-01-11T04:04:53;3.08;41.54
73112;HTU21D;61301;51.956;5.876;2024-01-11T04:07:19;3.29;42.43
73112;HTU21D;61301;51.956;5.876;2024-01-11T04:09:45;3.40;42.29
73112;HTU21D;61301;51.956;5.876;2024-01-11T04:12:11;3.39;42.06
73112;HTU21D;61301;51.956;5.876;2024-01-11T04:14:38;3.38;42.03
73112;HTU21D;61301;51.956;5.876;2024-01-11T04:17:06;3.31;41.76
73112;HTU21D;61301;51.956;5.876;2024-01-11T04:19:32;3.24;41.75
73112;HTU21D;61301;51.956;5.876;2024-01-11T04:21:58;3.12;41.64
73112;HTU21D;61301;51.956;5.876;2024-01-11T04:24:24;2.96;41.65
73112;HTU21D;61301;51.956;5.876;2024-01-11T04:26:50;2.83;41.66
73112;HTU21D;61301;51.956;5.876;2024-01-11T04:29:16;2.71;41.77
73112;HTU21D;61301;51.956;5.876;2024-01-11T04:31:43;2.64;41.82
73112;HTU21D;61301;51.956;5.876;2024-01-11T04:34:09;2.58;42.11
73112;HTU21D;61301;51.956;5.876;2024-01-11T04:36:37;2.41;42.19
73112;HTU21D;61301;51.956;5.876;2024-01-11T04:39:03;2.28;42.52
73112;HTU21D;61301;51.956;5.876;2024-01-11T04:41:29;2.15;42.65
73112;HTU21D;61301;51.956;5.876;2024-01-11T04:43:55;2.06;42.82
73112;HTU21D;61301;51.956;5.876;2024-01-11T04:46:22;2.06;43.16
73112;HTU21D;61301;51.956;5.876;2024-01-11T04:48:50;1.97;43.51
73112;HTU21D;61301;51.956;5.876;2024-01-11T04:51:17;1.86;43.48
73112;HTU21D;61301;51.956;5.876;2024-01-11T04:53:44;1.81;43.76
73112;HTU21D;61301;51.956;5.876;2024-01-11T04:56:12;1.77;43.72
73112;HTU21D;61301;51.956;5.876;2024-01-11T04:58:40;1.82;44.07
73112;HTU21D;61301;51.956;5.876;2024-01-11T05:01:07;1.82;44.05
73112;HTU21D;61301;51.956;5.876;2024-01-11T05:03:33;1.84;44.08
73112;HTU21D;61301;51.956;5.876;2024-01-11T05:05:59;1.85;43.86
73112;HTU21D;61301;51.956;5.876;2024-01-11T05:08:26;1.85;43.75
73112;HTU21D;61301;51.956;5.876;2024-01-11T05:10:52;1.95;43.81
73112;HTU21D;61301;51.956;5.876;2024-01-11T05:13:18;1.94;43.61
73112;HTU21D;61301;51.956;5.876;2024-01-11T05:15:45;2.08;43.70
73112;HTU21D;61301;51.956;5.876;2024-01-11T05:18:11;2.22;43.56
73112;HTU21D;61301;51.956;5.876;2024-01-11T05:20:37;2.38;43.63
73112;HTU21D;61301;51.956;5.876;2024-01-11T05:23:04;2.46;43.51
73112;HTU21D;61301;51.956;5.876;2024-01-11T05:25:30;2.49;43.43
73112;HTU21D;61301;51.956;5.876;2024-01-11T05:28:03;2.52;43.31
73112;HTU21D;61301;51.956;5.876;2024-01-11T05:30:30;2.45;43.17
73112;HTU21D;61301;51.956;5.876;2024-01-11T05:32:56;2.35;43.10
73112;HTU21D;61301;51.956;5.876;2024-01-11T05:35:22;2.29;43.22
73112;HTU21D;61301;51.956;5.876;2024-01-11T05:37:50;2.28;43.32
73112;HTU21D;61301;51.956;5.876;2024-01-11T05:40:16;2.37;43.47
73112;HTU21D;61301;51.956;5.876;2024-01-11T05:42:42;2.30;43.50
73112;HTU21D;61301;51.956;5.876;2024-01-11T05:45:08;2.21;43.45
73112;HTU21D;61301;51.956;5.876;2024-01-11T05:47:35;2.28;43.83
73112;HTU21D;61301;51.956;5.876;2024-01-11T05:50:01;2.38;43.63
73112;HTU21D;61301;51.956;5.876;2024-01-11T05:52:27;2.37;43.40
73112;HTU21D;61301;51.956;5.876;2024-01-11T05:54:53;2.46;43.74
73112;HTU21D;61301;51.956;5.876;2024-01-11T05:57:19;2.57;43.75
73112;HTU21D;61301;51.956;5.876;2024-01-11T05:59:45;2.73;44.18
73112;HTU21D;61301;51.956;5.876;2024-01-11T06:02:12;2.91;44.31
73112;HTU21D;61301;51.956;5.876;2024-01-11T06:04:39;3.08;44.29
73112;HTU21D;61301;51.956;5.876;2024-01-11T06:07:05;3.13;43.96
73112;HTU21D;61301;51.956;5.876;2024-01-11T06:09:31;3.23;44.13
73112;HTU21D;61301;51.956;5.876;2024-01-11T06:11:57;3.40;44.38
73112;HTU21D;61301;51.956;5.876;2024-01-11T06:14:23;3.57;44.54
73112;HTU21D;61301;51.956;5.876;2024-01-11T06:16:49;3.63;44.26
73112;HTU21D;61301;51.956;5.876;2024-01-11T06:19:15;3.72;44.35
73112;HTU21D;61301;51.956;5.876;2024-01-11T06:21:42;3.86;44.57
73112;HTU21D;61301;51.956;5.876;2024-01-11T06:24:07;3.93;44.22
73112;HTU21D;61301;51.956;5.876;2024-01-11T06:26:33;3.82;43.80
73112;HTU21D;61301;51.956;5.876;2024-01-11T06:28:59;3.73;43.80
73112;HTU21D;61301;51.956;5.876;2024-01-11T06:31:25;3.63;43.78
73112;HTU21D;61301;51.956;5.876;2024-01-11T06:33:52;3.47;43.45
73112;HTU21D;61301;51.956;5.876;2024-01-11T06:36:18;3.34;43.68
73112;HTU21D;61301;51.956;5.876;2024-01-11T06:38:44;3.28;43.74
73112;HTU21D;61301;51.956;5.876;2024-01-11T06:41:10;3.30;43.89
73112;HTU21D;61301;51.956;5.876;2024-01-11T06:43:36;3.33;44.00
73112;HTU21D;61301;51.956;5.876;2024-01-11T06:46:05;3.41;44.16
73112;HTU21D;61301;51.956;5.876;2024-01-11T06:48:32;3.45;44.07
73112;HTU21D;61301;51.956;5.876;2024-01-11T06:50:58;3.57;44.14
73112;HTU21D;61301;51.956;5.876;2024-01-11T06:53:24;3.62;43.96
73112;HTU21D;61301;51.956;5.876;2024-01-11T06:55:50;3.74;44.48
73112;HTU21D;61301;51.956;5.876;2024-01-11T06:58:20;3.97;45.02
73112;HTU21D;61301;51.956;5.876;2024-01-11T07:00:49;4.12;44.92
73112;HTU21D;61301;51.956;5.876;2024-01-11T07:03:15;4.15;44.66
73112;HTU21D;61301;51.956;5.876;2024-01-11T07:05:41;4.14;44.51
73112;HTU21D;61301;51.956;5.876;2024-01-11T07:08:07;4.00;44.13
73112;HTU21D;61301;51.956;5.876;2024-01-11T07:10:34;3.86;43.92
73112;HTU21D;61301;51.956;5.876;2024-01-11T07:13:00;3.63;43.54
73112;HTU21D;61301;51.956;5.876;2024-01-11T07:15:26;3.38;43.23
73112;HTU21D;61301;51.956;5.876;2024-01-11T07:17:52;3.09;43.29
73112;HTU21D;61301;51.956;5.876;2024-01-11T07:20:19;2.90;43.49
73112;HTU21D;61301;51.956;5.876;2024-01-11T07:22:45;2.74;43.54
73112;HTU21D;61301;51.956;5.876;2024-01-11T07:25:11;2.60;43.45
73112;HTU21D;61301;51.956;5.876;2024-01-11T07:27:37;2.54;43.71
73112;HTU21D;61301;51.956;5.876;2024-01-11T07:30:03;2.65;43.96
73112;HTU21D;61301;51.956;5.876;2024-01-11T07:32:31;2.79;44.09
73112;HTU21D;61301;51.956;5.876;2024-01-11T07:34:57;2.95;44.24
73112;HTU21D;61301;51.956;5.876;2024-01-11T07:37:23;3.00;44.30
73112;HTU21D;61301;51.956;5.876;2024-01-11T07:39:51;3.10;44.39
73112;HTU21D;61301;51.956;5.876;2024-01-11T07:42:17;3.38;45.33
73112;HTU21D;61301;51.956;5.876;2024-01-11T07:44:44;3.84;46.51
73112;HTU21D;61301;51.956;5.876;2024-01-11T07:47:10;4.20;46.62
73112;HTU21D;61301;51.956;5.876;2024-01-11T07:49:37;4.47;46.51
73112;HTU21D;61301;51.956;5.876;2024-01-11T07:52:03;4.62;46.34
73112;HTU21D;61301;51.956;5.876;2024-01-11T07:54:30;4.88;47.10
73112;HTU21D;61301;51.956;5.876;2024-01-11T07:56:57;5.12;47.02
73112;HTU21D;61301;51.956;5.876;2024-01-11T07:59:23;5.21;46.67
73112;HTU21D;61301;51.956;5.876;2024-01-11T08:01:49;5.03;46.21
73112;HTU21D;61301;51.956;5.876;2024-01-11T08:04:16;4.91;46.14
73112;HTU21D;61301;51.956;5.876;2024-01-11T08:06:42;4.83;45.68
73112;HTU21D;61301;51.956;5.876;2024-01-11T08:09:09;4.82;46.00
73112;HTU21D;61301;51.956;5.876;2024-01-11T08:11:36;4.93;46.28
73112;HTU21D;61301;51.956;5.876;2024-01-11T08:14:02;5.13;46.56
73112;HTU21D;61301;51.956;5.876;2024-01-11T08:16:28;5.20;46.13
73112;HTU21D;61301;51.956;5.876;2024-01-11T08:18:54;5.23;46.10
73112;HTU21D;61301;51.956;5.876;2024-01-11T08:21:20;5.15;45.76
73112;HTU21D;61301;51.956;5.876;2024-01-11T08:23:46;4.96;45.55
73112;HTU21D;61301;51.956;5.876;2024-01-11T08:26:15;5.01;45.94
73112;HTU21D;61301;51.956;5.876;2024-01-11T08:28:41;5.09;45.90
73112;HTU21D;61301;51.956;5.876;2024-01-11T08:31:07;5.09;45.77
73112;HTU21D;61301;51.956;5.876;2024-01-11T08:33:34;5.09;45.70
73112;HTU21D;61301;51.956;5.876;2024-01-11T08:36:06;5.11;45.75
73112;HTU21D;61301;51.956;5.876;2024-01-11T08:38:32;5.18;45.48
73112;HTU21D;61301;51.956;5.876;2024-01-11T08:40:58;5.16;45.38
73112;HTU21D;61301;51.956;5.876;2024-01-11T08:43:26;5.25;45.41
73112;HTU21D;61301;51.956;5.876;2024-01-11T08:45:52;5.48;45.32
73112;HTU21D;61301;51.956;5.876;2024-01-11T08:48:18;5.78;45.07
73112;HTU21D;61301;51.956;5.876;2024-01-11T08:50:44;6.08;45.28
73112;HTU21D;61301;51.956;5.876;2024-01-11T08:53:10;6.38;44.51
73112;HTU21D;61301;51.956;5.876;2024-01-11T08:55:36;6.63;44.31
73112;HTU21D;61301;51.956;5.876;2024-01-11T08:58:02;6.86;44.11
73112;HTU21D;61301;51.956;5.876;2024-01-11T09:00:29;7.01;43.66
73112;HTU21D;61301;51.956;5.876;2024-01-11T09:02:55;7.14;43.56
73112;HTU21D;61301;51.956;5.876;2024-01-11T09:05:21;7.28;43.12
73112;HTU21D;61301;51.956;5.876;2024-01-11T09:07:47;7.43;42.89
73112;HTU21D;61301;51.956;5.876;2024-01-11T09:10:13;7.55;42.55
73112;HTU21D;61301;51.956;5.876;2024-01-11T09:12:39;7.58;41.67
73112;HTU21D;61301;51.956;5.876;2024-01-11T09:15:06;7.40;40.59
73112;HTU21D;61301;51.956;5.876;2024-01-11T09:17:32;7.25;40.58
73112;HTU21D;61301;51.956;5.876;2024-01-11T09:19:58;7.17;40.82
73112;HTU21D;61301;51.956;5.876;2024-01-11T09:22:24;7.09;40.37
73112;HTU21D;61301;51.956;5.876;2024-01-11T09:24:50;7.00;39.47
73112;HTU21D;61301;51.956;5.876;2024-01-11T09:27:16;6.80;39.46
73112;HTU21D;61301;51.956;5.876;2024-01-11T09:29:43;6.68;39.44
73112;HTU21D;61301;51.956;5.876;2024-01-11T09:32:10;6.63;38.98
73112;HTU21D;61301;51.956;5.876;2024-01-11T09:34:36;6.65;38.55
73112;HTU21D;61301;51.956;5.876;2024-01-11T09:37:02;6.42;38.74
73112;HTU21D;61301;51.956;5.876;2024-01-11T09:39:29;6.40;38.66
73112;HTU21D;61301;51.956;5.876;2024-01-11T09:42:07;6.35;38.64
73112;HTU21D;61301;51.956;5.876;2024-01-11T09:44:37;6.27;38.49
73112;HTU21D;61301;51.956;5.876;2024-01-11T09:47:08;6.25;38.88
73112;HTU21D;61301;51.956;5.876;2024-01-11T09:49:36;6.37;39.19
73112;HTU21D;61301;51.956;5.876;2024-01-11T09:52:04;6.58;38.59
73112;HTU21D;61301;51.956;5.876;2024-01-11T09:54:31;6.60;38.83
73112;HTU21D;61301;51.956;5.876;2024-01-11T09:56:59;6.79;38.98
73112;HTU21D;61301;51.956;5.876;2024-01-11T09:59:25;6.83;38.13
73112;HTU21D;61301;51.956;5.876;2024-01-11T10:01:52;6.78;38.33
73112;HTU21D;61301;51.956;5.876;2024-01-11T10:04:18;6.76;37.78
73112;HTU21D;61301;51.956;5.876;2024-01-11T10:06:45;6.67;38.01
73112;HTU21D;61301;51.956;5.876;2024-01-11T10:09:11;6.66;37.91
73112;HTU21D;61301;51.956;5.876;2024-01-11T10:11:38;6.61;38.23
73112;HTU21D;61301;51.956;5.876;2024-01-11T10:14:04;6.69;38.24
73112;HTU21D;61301;51.956;5.876;2024-01-11T10:16:31;6.72;38.04
73112;HTU21D;61301;51.956;5.876;2024-01-11T10:18:57;6.73;38.18
73112;HTU21D;61301;51.956;5.876;2024-01-11T10:21:24;6.64;37.96
73112;HTU21D;61301;51.956;5.876;2024-01-11T10:23:50;6.42;38.49
73112;HTU21D;61301;51.956;5.876;2024-01-11T10:26:17;6.49;38.94
73112;HTU21D;61301;51.956;5.876;2024-01-11T10:28:44;6.60;38.71
73112;HTU21D;61301;51.956;5.876;2024-01-11T10:31:11;6.56;39.27
73112;HTU21D;61301;51.956;5.876;2024-01-11T10:33:37;6.51;39.05
73112;HTU21D;61301;51.956;5.876;2024-01-11T10:36:04;6.28;39.14
73112;HTU21D;61301;51.956;5.876;2024-01-11T10:38:30;6.13;39.90
73112;HTU21D;61301;51.956;5.876;2024-01-11T10:40:59;6.19;40.07
73112;HTU21D;61301;51.956;5.876;2024-01-11T10:43:26;6.06;40.37
73112;HTU21D;61301;51.956;5.876;2024-01-11T10:45:57;5.94;40.84
73112;HTU21D;61301;51.956;5.876;2024-01-11T10:48:25;5.79;41.54
73112;HTU21D;61301;51.956;5.876;2024-01-11T10:50:55;5.65;42.31
73112;HTU21D;61301;51.956;5.876;2024-01-11T10:53:42;5.78;42.39
73112;HTU21D;61301;51.956;5.876;2024-01-11T10:56:10;5.80;42.90
73112;HTU21D;61301;51.956;5.876;2024-01-11T10:58:40;5.93;43.06
73112;HTU21D;61301;51.956;5.876;2024-01-11T11:01:08;5.82;43.84
73112;HTU21D;61301;51.956;5.876;2024-01-11T11:03:34;5.80;44.22
73112;HTU21D;61301;51.956;5.876;2024-01-11T11:06:01;5.78;44.58
73112;HTU21D;61301;51.956;5.876;2024-01-11T11:08:28;5.79;45.60
73112;HTU21D;61301;51.956;5.876;2024-01-11T11:11:00;5.79;46.63
73112;HTU21D;61301;51.956;5.876;2024-01-11T11:13:26;5.72;46.63
73112;HTU21D;61301;51.956;5.876;2024-01-11T11:15:53;5.75;46.42
73112;HTU21D;61301;51.956;5.876;2024-01-11T11:18:20;5.77;47.28
73112;HTU21D;61301;51.956;5.876;2024-01-11T11:20:47;5.64;47.62
73112;HTU21D;61301;51.956;5.876;2024-01-11T11:23:15;5.52;48.25
73112;HTU21D;61301;51.956;5.876;2024-01-11T11:25:45;5.39;48.97
73112;HTU21D;61301;51.956;5.876;2024-01-11T11:28:12;5.41;48.83
73112;HTU21D;61301;51.956;5.876;2024-01-11T11:30:40;5.54;48.77
73112;HTU21D;61301;51.956;5.876;2024-01-11T11:33:26;5.76;48.65
73112;HTU21D;61301;51.956;5.876;2024-01-11T11:35:53;5.85;49.02
73112;HTU21D;61301;51.956;5.876;2024-01-11T11:38:25;5.93;48.66
73112;HTU21D;61301;51.956;5.876;2024-01-11T11:40:53;6.05;48.52
73112;HTU21D;61301;51.956;5.876;2024-01-11T11:43:21;6.26;48.31
73112;HTU21D;61301;51.956;5.876;2024-01-11T11:45:48;6.38;48.12
73112;HTU21D;61301;51.956;5.876;2024-01-11T11:51:15;6.49;47.98
73112;HTU21D;61301;51.956;5.876;2024-01-11T11:53:41;6.69;47.82
73112;HTU21D;61301;51.956;5.876;2024-01-11T11:56:08;6.80;47.78
73112;HTU21D;61301;51.956;5.876;2024-01-11T11:58:38;6.79;47.70
73112;HTU21D;61301;51.956;5.876;2024-01-11T12:01:08;6.80;47.86
73112;HTU21D;61301;51.956;5.876;2024-01-11T12:03:36;6.84;48.05
73112;HTU21D;61301;51.956;5.876;2024-01-11T12:06:07;6.97;48.12
73112;HTU21D;61301;51.956;5.876;2024-01-11T12:08:34;7.10;47.78
73112;HTU21D;61301;51.956;5.876;2024-01-11T12:11:01;7.16;47.50
73112;HTU21D;61301;51.956;5.876;2024-01-11T12:13:28;7.32;47.58
73112;HTU21D;61301;51.956;5.876;2024-01-11T12:15:56;7.39;47.26
73112;HTU21D;61301;51.956;5.876;2024-01-11T12:18:22;7.45;47.15
73112;HTU21D;61301;51.956;5.876;2024-01-11T12:20:48;7.52;47.12
73112;HTU21D;61301;51.956;5.876;2024-01-11T12:23:14;7.59;46.70
73112;HTU21D;61301;51.956;5.876;2024-01-11T12:25:41;7.64;46.98
73112;HTU21D;61301;51.956;5.876;2024-01-11T12:28:07;7.81;46.92
73112;HTU21D;61301;51.956;5.876;2024-01-11T12:30:33;7.93;46.88
73112;HTU21D;61301;51.956;5.876;2024-01-11T12:33:00;8.12;46.86
73112;HTU21D;61301;51.956;5.876;2024-01-11T12:35:30;8.16;46.87
73112;HTU21D;61301;51.956;5.876;2024-01-11T12:38:01;8.15;46.65
73112;HTU21D;61301;51.956;5.876;2024-01-11T12:40:27;8.16;46.58
73112;HTU21D;61301;51.956;5.876;2024-01-11T12:42:54;8.21;46.78
73112;HTU21D;61301;51.956;5.876;2024-01-11T12:45:20;8.30;46.86
73112;HTU21D;61301;51.956;5.876;2024-01-11T12:47:46;8.29;46.70
73112;HTU21D;61301;51.956;5.876;2024-01-11T12:50:12;8.32;46.64
73112;HTU21D;61301;51.956;5.876;2024-01-11T12:52:38;8.32;46.45
73112;HTU21D;61301;51.956;5.876;2024-01-11T12:55:07;8.28;46.34
73112;HTU21D;61301;51.956;5.876;2024-01-11T12:57:34;8.12;46.50
73112;HTU21D;61301;51.956;5.876;2024-01-11T13:00:29;8.15;46.61
73112;HTU21D;61301;51.956;5.876;2024-01-11T13:02:55;8.11;46.70
73112;HTU21D;61301;51.956;5.876;2024-01-11T13:05:21;8.13;46.55
73112;HTU21D;61301;51.956;5.876;2024-01-11T13:07:47;8.05;46.68
73112;HTU21D;61301;51.956;5.876;2024-01-11T13:10:13;8.00;46.62
73112;HTU21D;61301;51.956;5.876;2024-01-11T13:12:40;7.94;46.66
73112;HTU21D;61301;51.956;5.876;2024-01-11T13:15:08;7.90;47.08
73112;HTU21D;61301;51.956;5.876;2024-01-11T13:17:34;7.84;46.94
73112;HTU21D;61301;51.956;5.876;2024-01-11T13:20:00;7.78;47.28
73112;HTU21D;61301;51.956;5.876;2024-01-11T13:22:27;7.79;47.37
73112;HTU21D;61301;51.956;5.876;2024-01-11T13:24:54;7.85;47.66
73112;HTU21D;61301;51.956;5.876;2024-01-11T13:27:20;8.06;47.67
73112;HTU21D;61301;51.956;5.876;2024-01-11T13:29:46;8.12;47.46
73112;HTU21D;61301;51.956;5.876;2024-01-11T13:32:12;8.08;47.40
73112;HTU21D;61301;51.956;5.876;2024-01-11T13:34:38;8.00;47.38
73112;HTU21D;61301;51.956;5.876;2024-01-11T13:37:04;7.90;47.55
73112;HTU21D;61301;51.956;5.876;2024-01-11T13:39:31;7.85;47.74
73112;HTU21D;61301;51.956;5.876;2024-01-11T13:41:57;7.90;47.90
73112;HTU21D;61301;51.956;5.876;2024-01-11T13:44:23;7.98;47.91
73112;HTU21D;61301;51.956;5.876;2024-01-11T13:46:49;8.08;47.99
73112;HTU21D;61301;51.956;5.876;2024-01-11T13:49:15;8.12;47.89
73112;HTU21D;61301;51.956;5.876;2024-01-11T13:51:41;8.03;47.87
73112;HTU21D;61301;51.956;5.876;2024-01-11T13:54:10;8.01;48.60
73112;HTU21D;61301;51.956;5.876;2024-01-11T13:56:36;7.92;49.01
73112;HTU21D;61301;51.956;5.876;2024-01-11T13:59:02;7.78;49.05
73112;HTU21D;61301;51.956;5.876;2024-01-11T14:01:28;7.62;49.31
73112;HTU21D;61301;51.956;5.876;2024-01-11T14:03:54;7.38;50.34
73112;HTU21D;61301;51.956;5.876;2024-01-11T14:06:20;7.18;51.46
73112;HTU21D;61301;51.956;5.876;2024-01-11T14:08:47;7.14;51.72
73112;HTU21D;61301;51.956;5.876;2024-01-11T14:11:13;7.12;51.95
73112;HTU21D;61301;51.956;5.876;2024-01-11T14:13:39;7.00;52.47
73112;HTU21D;61301;51.956;5.876;2024-01-11T14:16:05;6.84;52.51
73112;HTU21D;61301;51.956;5.876;2024-01-11T14:18:31;6.82;52.82
73112;HTU21D;61301;51.956;5.876;2024-01-11T14:20:57;7.04;53.05
73112;HTU21D;61301;51.956;5.876;2024-01-11T14:23:23;7.16;52.65
73112;HTU21D;61301;51.956;5.876;2024-01-11T14:25:49;7.13;52.22
73112;HTU21D;61301;51.956;5.876;2024-01-11T14:28:15;7.08;52.24
73112;HTU21D;61301;51.956;5.876;2024-01-11T14:30:42;6.88;52.59
73112;HTU21D;61301;51.956;5.876;2024-01-11T14:33:08;6.78;53.20
73112;HTU21D;61301;51.956;5.876;2024-01-11T14:35:34;6.63;53.49
73112;HTU21D;61301;51.956;5.876;2024-01-11T14:38:00;6.54;54.04
73112;HTU21D;61301;51.956;5.876;2024-01-11T14:40:26;6.45;54.27
73112;HTU21D;61301;51.956;5.876;2024-01-11T14:42:52;6.43;54.39
73112;HTU21D;61301;51.956;5.876;2024-01-11T14:45:18;6.40;54.33
73112;HTU21D;61301;51.956;5.876;2024-01-11T14:47:44;6.38;54.35
73112;HTU21D;61301;51.956;5.876;2024-01-11T14:50:10;6.28;54.53
73112;HTU21D;61301;51.956;5.876;2024-01-11T14:52:37;6.26;54.56
73112;HTU21D;61301;51.956;5.876;2024-01-11T14:55:06;6.25;54.49
73112;HTU21D;61301;51.956;5.876;2024-01-11T14:57:32;6.21;54.64
73112;HTU21D;61301;51.956;5.876;2024-01-11T14:59:58;6.20;54.99
73112;HTU21D;61301;51.956;5.876;2024-01-11T15:02:24;6.13;55.61
73112;HTU21D;61301;51.956;5.876;2024-01-11T15:04:50;6.07;55.53
73112;HTU21D;61301;51.956;5.876;2024-01-11T15:07:16;6.06;55.40
73112;HTU21D;61301;51.956;5.876;2024-01-11T15:09:42;6.09;55.50
73112;HTU21D;61301;51.956;5.876;2024-01-11T15:12:08;6.11;55.24
73112;HTU21D;61301;51.956;5.876;2024-01-11T15:14:34;6.13;55.44
73112;HTU21D;61301;51.956;5.876;2024-01-11T15:17:00;6.14;55.81
73112;HTU21D;61301;51.956;5.876;2024-01-11T15:19:28;6.16;55.62
73112;HTU21D;61301;51.956;5.876;2024-01-11T15:21:54;6.21;55.74
73112;HTU21D;61301;51.956;5.876;2024-01-11T15:24:20;6.29;55.75
73112;HTU21D;61301;51.956;5.876;2024-01-11T15:26:47;6.28;55.60
73112;HTU21D;61301;51.956;5.876;2024-01-11T15:29:14;6.27;55.43